Time;durP1;ratioP1;P1;durP2;ratioP2;P2;SDS_P1;SDS_P2;PMS_P1;PMS_P2;Temp;Humidity;BMP_temperature;BMP_pressure;BME280_temperature;BME280_humidity;BME280_pressure;Samples;Min_cycle;Max_cycle;Signal;HPM_P1;HPM_P2
2021/08/21 00:00:48;;;;;;;13.82;12.13;;;16.00;99.90;;;;;;5031989;28;20048;-75
2021/08/21 00:03:15;;;;;;;12.20;10.90;;;16.00;99.90;;;;;;5082630;28;20032;-75
2021/08/21 00:05:41;;;;;;;10.85;9.15;;;15.90;99.90;;;;;;5064639;28;20371;-78
2021/08/21 00:08:07;;;;;;;11.35;10.18;;;15.90;99.90;;;;;;5046142;28;20055;-77
2021/08/21 00:10:35;;;;;;;10.45;9.40;;;15.90;99.90;;;;;;5065588;28;20395;-75
2021/08/21 00:13:02;;;;;;;13.05;10.25;;;15.80;99.90;;;;;;5066000;28;20498;-75
2021/08/21 00:15:29;;;;;;;11.95;10.63;;;15.80;99.90;;;;;;5063947;28;20044;-75
2021/08/21 00:17:55;;;;;;;11.95;10.70;;;15.80;99.90;;;;;;5029958;28;20040;-75
2021/08/21 00:20:22;;;;;;;12.50;11.20;;;15.80;99.90;;;;;;5048719;28;20028;-75
2021/08/21 00:22:48;;;;;;;11.90;10.68;;;15.70;99.90;;;;;;5049104;28;20067;-75
2021/08/21 00:25:15;;;;;;;15.20;11.18;;;15.70;99.90;;;;;;5064954;28;20052;-75
2021/08/21 00:27:43;;;;;;;13.80;11.98;;;15.70;99.90;;;;;;5046560;28;20397;-75
2021/08/21 00:30:10;;;;;;;14.63;12.85;;;15.70;99.90;;;;;;5065963;28;20036;-75
2021/08/21 00:32:37;;;;;;;15.13;11.95;;;15.70;99.90;;;;;;5082458;28;20031;-75
2021/08/21 00:35:05;;;;;;;13.25;11.85;;;15.70;99.90;;;;;;5064975;28;20044;-75
2021/08/21 00:37:32;;;;;;;14.00;12.27;;;15.60;99.90;;;;;;5081670;28;20032;-75
2021/08/21 00:39:58;;;;;;;12.10;10.35;;;15.60;99.90;;;;;;5086109;28;20032;-77
2021/08/21 00:42:25;;;;;;;13.25;11.95;;;15.60;99.90;;;;;;5068479;28;20051;-75
2021/08/21 00:44:51;;;;;;;14.10;12.63;;;15.50;99.90;;;;;;5087119;28;20028;-75
2021/08/21 00:47:19;;;;;;;12.65;11.30;;;15.50;99.90;;;;;;5066109;28;20032;-75
2021/08/21 00:49:54;;;;;;;13.77;12.25;;;15.50;99.90;;;;;;5067245;28;20036;-75
2021/08/21 00:52:26;;;;;;;13.82;12.38;;;15.50;99.90;;;;;;5049652;28;20521;-77
2021/08/21 00:54:56;;;;;;;15.02;13.13;;;15.40;99.90;;;;;;5067328;28;20383;-77
2021/08/21 00:57:24;;;;;;;15.70;14.05;;;15.50;99.90;;;;;;5067541;28;20944;-76
2021/08/21 00:59:52;;;;;;;15.82;12.30;;;15.40;99.90;;;;;;5051817;28;20375;-75
2021/08/21 01:02:20;;;;;;;14.27;12.88;;;15.40;99.90;;;;;;5052731;28;20466;-75
2021/08/21 01:04:57;;;;;;;15.30;13.18;;;15.40;99.90;;;;;;5068812;28;20043;-77
2021/08/21 01:07:31;;;;;;;18.52;15.32;;;15.40;99.90;;;;;;5063524;28;20586;-75
2021/08/21 01:10:07;;;;;;;18.45;15.73;;;15.40;99.90;;;;;;5050880;28;20062;-77
2021/08/21 01:12:36;;;;;;;18.77;15.07;;;15.40;99.90;;;;;;5050796;28;20044;-76
2021/08/21 01:15:05;;;;;;;16.15;13.35;;;15.40;99.90;;;;;;5051790;28;20047;-75
2021/08/21 01:17:38;;;;;;;15.82;13.52;;;15.30;99.90;;;;;;5032682;28;20051;-75
2021/08/21 01:20:08;;;;;;;15.77;14.07;;;15.30;99.90;;;;;;5068297;28;20028;-77
2021/08/21 01:22:37;;;;;;;17.35;15.00;;;15.30;99.90;;;;;;5051139;28;20491;-75
2021/08/21 01:25:24;;;;;;;17.27;15.48;;;15.30;99.90;;;;;;5068136;28;20425;-75
2021/08/21 01:27:51;;;;;;;18.20;14.95;;;15.30;99.90;;;;;;5066367;28;20103;-76
2021/08/21 01:30:22;;;;;;;16.27;14.25;;;15.20;99.90;;;;;;5068022;28;20613;-76
2021/08/21 01:33:00;;;;;;;17.27;15.07;;;15.20;99.90;;;;;;5067806;28;20035;-77
2021/08/21 01:35:28;;;;;;;16.63;14.60;;;15.20;99.90;;;;;;5056405;28;20541;-75
2021/08/21 01:37:55;;;;;;;17.33;15.40;;;15.20;99.90;;;;;;5066829;28;20032;-77
2021/08/21 01:40:41;;;;;;;17.77;14.45;;;15.10;99.90;;;;;;5067390;28;20040;-76
2021/08/21 01:43:12;;;;;;;17.55;15.15;;;15.10;99.90;;;;;;5067289;28;20040;-77
2021/08/21 01:45:57;;;;;;;18.52;14.77;;;15.10;99.90;;;;;;5067145;28;20050;-75
2021/08/21 01:48:25;;;;;;;19.15;15.60;;;15.00;99.90;;;;;;5033897;28;20032;-76
2021/08/21 01:50:53;;;;;;;17.50;15.55;;;15.00;99.90;;;;;;5085686;28;20044;-75
2021/08/21 01:53:20;;;;;;;19.70;15.18;;;15.00;99.90;;;;;;5049422;28;20398;-75
2021/08/21 01:55:48;;;;;;;20.90;16.65;;;15.00;99.90;;;;;;5067065;28;20048;-75
2021/08/21 01:58:49;;;;;;;20.52;16.02;;;15.00;99.90;;;;;;5052652;28;20064;-74
2021/08/21 02:01:26;;;;;;;19.08;16.60;;;15.00;99.90;;;;;;5051344;28;20036;-75
2021/08/21 02:04:19;;;;;;;19.75;16.15;;;15.00;99.90;;;;;;5050927;28;20370;-75
2021/08/21 02:06:47;;;;;;;18.92;16.20;;;14.90;99.90;;;;;;5065887;28;20103;-77
2021/08/21 02:09:18;;;;;;;19.85;16.05;;;15.00;99.90;;;;;;5066051;28;20039;-77
2021/08/21 02:11:51;;;;;;;19.55;16.40;;;14.90;99.90;;;;;;5064834;28;20028;-76
2021/08/21 02:14:18;;;;;;;;;;;14.90;99.90;;;;;;5065971;28;20044;-77
2021/08/21 02:16:49;;;;;;;18.05;15.32;;;14.90;99.90;;;;;;5066034;28;19923;-76
2021/08/21 02:19:17;;;;;;;18.63;16.13;;;14.90;99.90;;;;;;5066004;28;20032;-76
2021/08/21 02:21:58;;;;;;;22.60;16.27;;;14.90;99.90;;;;;;5051668;28;20039;-75
2021/08/21 02:24:27;;;;;;;18.13;15.10;;;14.80;99.90;;;;;;5066917;28;20390;-75
2021/08/21 02:26:58;;;;;;;20.77;15.57;;;14.90;99.90;;;;;;5048890;28;20036;-75
2021/08/21 02:29:25;;;;;;;20.23;16.67;;;14.80;99.90;;;;;;5048607;28;20403;-75
2021/08/21 02:31:55;;;;;;;23.23;17.70;;;14.80;99.90;;;;;;5069461;28;20028;-75
2021/08/21 02:34:28;;;;;;;19.08;15.57;;;14.80;99.90;;;;;;5084285;28;20048;-75
2021/08/21 02:36:54;;;;;;;18.10;15.85;;;14.80;99.90;;;;;;5032285;28;20051;-75
2021/08/21 02:39:21;;;;;;;18.98;14.80;;;14.70;99.90;;;;;;5064809;28;20044;-75
2021/08/21 02:41:48;;;;;;;19.58;16.42;;;14.70;99.90;;;;;;5063732;28;20039;-75
2021/08/21 02:44:14;;;;;;;21.17;16.95;;;14.80;99.90;;;;;;5084481;28;20032;-74
2021/08/21 02:46:41;;;;;;;21.58;17.85;;;14.70;99.90;;;;;;5049685;28;20359;-75
2021/08/21 02:49:07;;;;;;;24.02;16.77;;;14.70;99.90;;;;;;5048660;28;20418;-74
2021/08/21 02:51:34;;;;;;;25.25;18.00;;;14.70;99.90;;;;;;5065278;28;20028;-74
2021/08/21 02:54:00;;;;;;;19.80;16.63;;;14.70;99.90;;;;;;5049703;28;20040;-75
2021/08/21 02:56:27;;;;;;;20.33;17.23;;;14.70;99.90;;;;;;5003455;28;20040;-75
2021/08/21 02:58:54;;;;;;;19.83;16.23;;;14.60;99.90;;;;;;5065457;28;20058;-74
2021/08/21 03:01:23;;;;;;;20.20;16.30;;;14.60;99.90;;;;;;5065198;28;20040;-75
2021/08/21 03:03:50;;;;;;;19.92;17.38;;;14.60;99.90;;;;;;5066809;28;20467;-74
2021/08/21 03:06:17;;;;;;;18.42;14.65;;;14.60;99.90;;;;;;5048224;28;20036;-75
2021/08/21 03:08:44;;;;;;;19.80;16.30;;;14.60;99.90;;;;;;5048514;28;20048;-75
2021/08/21 03:11:11;;;;;;;19.85;16.27;;;14.60;99.90;;;;;;5065810;28;20422;-74
2021/08/21 03:13:57;;;;;;;21.02;16.77;;;14.60;99.90;;;;;;5081812;28;20028;-75
2021/08/21 03:16:24;;;;;;;20.88;16.17;;;14.60;99.90;;;;;;5064012;28;20043;-75
2021/08/21 03:18:50;;;;;;;17.45;14.27;;;14.60;99.90;;;;;;5064811;28;20047;-75
2021/08/21 03:21:18;;;;;;;20.92;15.48;;;14.60;99.90;;;;;;5048838;28;20520;-75
2021/08/21 03:23:45;;;;;;;20.90;16.73;;;14.70;99.90;;;;;;5065970;28;20039;-75
2021/08/21 03:26:12;;;;;;;20.08;16.00;;;14.70;99.90;;;;;;5047704;28;20054;-75
2021/08/21 03:28:41;;;;;;;20.73;16.00;;;14.80;99.90;;;;;;5048959;28;20039;-75
2021/08/21 03:31:08;;;;;;;18.05;14.88;;;14.90;99.90;;;;;;5050667;28;20032;-75
2021/08/21 03:33:34;;;;;;;19.75;15.07;;;14.90;99.90;;;;;;5064799;28;20039;-75
2021/08/21 03:36:02;;;;;;;18.17;14.93;;;15.00;99.90;;;;;;5064438;28;20043;-75
2021/08/21 03:38:31;;;;;;;18.08;14.43;;;15.10;99.90;;;;;;5047458;28;20059;-74
2021/08/21 03:41:05;;;;;;;20.45;15.70;;;15.10;99.90;;;;;;5048282;28;20040;-75
2021/08/21 03:43:40;;;;;;;18.15;14.57;;;15.20;99.90;;;;;;5065256;28;20391;-75
2021/08/21 03:46:07;;;;;;;18.40;14.35;;;15.30;99.90;;;;;;5063920;28;20479;-75
2021/08/21 03:48:34;;;;;;;18.38;14.43;;;15.30;99.90;;;;;;5046741;28;20052;-75
2021/08/21 03:51:01;;;;;;;19.20;14.80;;;15.30;99.90;;;;;;5048935;28;20043;-76
2021/08/21 03:53:30;;;;;;;17.70;14.27;;;15.40;99.90;;;;;;5049013;28;20048;-76
2021/08/21 03:56:05;;;;;;;20.30;15.48;;;15.40;99.90;;;;;;5049699;28;20032;-76
2021/08/21 03:58:36;;;;;;;18.20;14.63;;;15.40;99.90;;;;;;5064982;28;20040;-76
2021/08/21 04:01:02;;;;;;;18.80;15.10;;;15.50;99.90;;;;;;5082377;28;20399;-76
2021/08/21 04:03:30;;;;;;;21.70;16.17;;;15.50;99.90;;;;;;5064187;28;20067;-77
2021/08/21 04:05:57;;;;;;;20.15;15.52;;;15.50;99.90;;;;;;5047911;28;20036;-77
2021/08/21 04:08:24;;;;;;;20.15;15.02;;;15.60;99.90;;;;;;5048013;28;20044;-76
2021/08/21 04:10:50;;;;;;;20.27;15.13;;;15.60;99.90;;;;;;5049073;28;20491;-76
2021/08/21 04:13:20;;;;;;;20.17;15.93;;;15.70;99.90;;;;;;5068365;28;20047;-76
2021/08/21 04:15:47;;;;;;;20.23;16.33;;;15.70;99.90;;;;;;5051313;28;20415;-75
2021/08/21 04:18:16;;;;;;;21.52;16.70;;;15.80;99.90;;;;;;5068343;28;20032;-75
2021/08/21 04:20:42;;;;;;;21.00;16.58;;;15.90;99.90;;;;;;5087671;28;20032;-75
2021/08/21 04:23:10;;;;;;;19.10;16.20;;;15.90;99.90;;;;;;5052034;28;20498;-75
2021/08/21 04:25:40;;;;;;;18.02;15.60;;;15.90;99.90;;;;;;5067158;28;20043;-75
2021/08/21 04:28:08;;;;;;;20.75;17.13;;;16.00;99.90;;;;;;5067452;28;20031;-75
2021/08/21 04:30:35;;;;;;;20.05;17.10;;;16.00;99.90;;;;;;5068748;28;20055;-75
2021/08/21 04:33:02;;;;;;;18.67;16.00;;;16.10;99.90;;;;;;5067468;28;20447;-75
2021/08/21 04:35:28;;;;;;;21.13;15.55;;;16.10;99.90;;;;;;5067571;28;20059;-75
2021/08/21 04:37:57;;;;;;;21.65;17.10;;;16.10;99.90;;;;;;5051049;28;20036;-74
2021/08/21 04:40:24;;;;;;;20.15;15.00;;;16.20;99.90;;;;;;5069322;28;20042;-75
2021/08/21 04:42:57;;;;;;;18.73;16.20;;;16.20;99.90;;;;;;5069287;28;20048;-75
2021/08/21 04:45:23;;;;;;;18.30;16.10;;;16.20;99.90;;;;;;5068375;28;20596;-75
2021/08/21 04:47:50;;;;;;;19.52;16.20;;;16.20;99.90;;;;;;5066780;28;20043;-75
2021/08/21 04:50:18;;;;;;;21.55;16.73;;;16.20;99.90;;;;;;5068224;28;20471;-74
2021/08/21 04:52:45;;;;;;;22.42;17.20;;;16.20;99.90;;;;;;5085124;28;20793;-74
2021/08/21 04:55:12;;;;;;;21.80;18.15;;;16.20;99.90;;;;;;5035433;28;20483;-75
2021/08/21 04:57:38;;;;;;;19.70;17.60;;;16.20;99.90;;;;;;5065966;28;20024;-75
2021/08/21 05:00:06;;;;;;;22.13;18.45;;;16.20;99.90;;;;;;5052116;28;20032;-75
2021/08/21 05:02:54;;;;;;;20.83;17.40;;;16.20;99.90;;;;;;5071090;28;20393;-75
2021/08/21 05:05:22;;;;;;;22.38;18.48;;;16.20;99.90;;;;;;5068463;28;20051;-75
2021/08/21 05:07:49;;;;;;;22.08;17.95;;;16.20;99.90;;;;;;5048554;28;20052;-75
2021/08/21 05:10:16;;;;;;;23.00;19.55;;;16.20;99.90;;;;;;5052139;28;20032;-75
2021/08/21 05:12:44;;;;;;;21.80;19.10;;;16.30;99.90;;;;;;5051505;28;20399;-76
2021/08/21 05:15:15;;;;;;;22.95;18.85;;;16.30;99.90;;;;;;5052229;28;20032;-76
2021/08/21 05:17:51;;;;;;;21.38;18.70;;;16.30;99.90;;;;;;5048437;28;20044;-76
2021/08/21 05:20:51;;;;;;;23.75;17.98;;;16.30;99.90;;;;;;5068392;28;20399;-76
2021/08/21 05:23:19;;;;;;;;;;;16.30;99.90;;;;;;5041282;28;20059;-76
2021/08/21 05:25:47;;;;;;;17.25;15.45;;;16.30;99.90;;;;;;5049518;28;19916;-76
2021/08/21 05:28:16;;;;;;;19.90;16.52;;;16.30;99.90;;;;;;5083928;28;20031;-76
2021/08/21 05:30:43;;;;;;;20.17;16.13;;;16.30;99.90;;;;;;5067946;28;20028;-76
2021/08/21 05:33:13;;;;;;;19.42;16.17;;;16.40;99.90;;;;;;5085318;28;20035;-76
2021/08/21 05:35:40;;;;;;;24.58;18.25;;;16.40;99.90;;;;;;5084016;28;20521;-76
2021/08/21 05:38:07;;;;;;;20.75;18.23;;;16.40;99.90;;;;;;5064340;28;20036;-76
2021/08/21 05:40:34;;;;;;;23.23;18.05;;;16.50;99.90;;;;;;5085222;28;20032;-76
2021/08/21 05:43:01;;;;;;;21.48;17.80;;;16.50;99.90;;;;;;5085206;28;20036;-76
2021/08/21 05:45:28;;;;;;;20.55;16.83;;;16.50;99.90;;;;;;5082861;28;20035;-75
2021/08/21 05:47:54;;;;;;;20.42;16.80;;;16.50;99.90;;;;;;5065419;28;20497;-75
2021/08/21 05:50:21;;;;;;;19.42;16.48;;;16.50;99.90;;;;;;5067566;28;20047;-76
2021/08/21 05:52:49;;;;;;;19.13;16.55;;;16.60;99.90;;;;;;5066967;28;20051;-76
2021/08/21 05:55:16;;;;;;;23.73;17.85;;;16.60;99.90;;;;;;5051038;28;20047;-76
2021/08/21 05:58:03;;;;;;;22.08;17.30;;;16.70;99.90;;;;;;5065669;28;20028;-76
2021/08/21 06:00:30;;;;;;;25.23;20.92;;;16.70;99.90;;;;;;5050952;28;20052;-76
2021/08/21 06:02:57;;;;;;;27.05;21.90;;;16.80;99.90;;;;;;5066359;28;20139;-76
2021/08/21 06:05:23;;;;;;;25.42;21.02;;;16.80;99.90;;;;;;5085022;28;20044;-76
2021/08/21 06:07:56;;;;;;;26.98;21.67;;;16.90;99.90;;;;;;5064086;28;20391;-76
2021/08/21 06:10:30;;;;;;;29.58;22.88;;;17.10;99.90;;;;;;5066690;28;20063;-76
2021/08/21 06:12:56;;;;;;;29.35;23.08;;;17.20;99.90;;;;;;5067127;28;20036;-76
2021/08/21 06:15:22;;;;;;;27.88;21.70;;;17.30;99.90;;;;;;5067034;28;20487;-76
2021/08/21 06:17:49;;;;;;;31.17;23.30;;;17.40;99.90;;;;;;5063225;28;20486;-77
2021/08/21 06:20:15;;;;;;;29.08;23.48;;;17.50;99.90;;;;;;5050035;28;20036;-77
2021/08/21 06:22:42;;;;;;;28.27;22.83;;;17.60;99.90;;;;;;5049026;28;20383;-75
2021/08/21 06:25:09;;;;;;;26.90;21.63;;;17.70;99.90;;;;;;5084191;28;20043;-75
2021/08/21 06:27:37;;;;;;;25.88;21.30;;;17.80;99.90;;;;;;5030297;28;20055;-75
2021/08/21 06:30:05;;;;;;;27.05;22.50;;;17.80;99.90;;;;;;5084243;28;20036;-74
2021/08/21 06:32:31;;;;;;;25.15;19.63;;;17.90;99.90;;;;;;5083177;28;20580;-75
2021/08/21 06:34:58;;;;;;;24.60;20.27;;;18.00;99.90;;;;;;5044775;28;20044;-75
2021/08/21 06:37:24;;;;;;;25.63;20.73;;;18.00;99.90;;;;;;5069074;28;20043;-74
2021/08/21 06:39:51;;;;;;;19.88;15.38;;;18.10;99.90;;;;;;5066336;28;20036;-75
2021/08/21 06:42:17;;;;;;;23.30;18.67;;;18.10;99.90;;;;;;5035233;28;20052;-75
2021/08/21 06:45:01;;;;;;;22.95;17.88;;;18.20;99.90;;;;;;5047063;28;20055;-75
2021/08/21 06:47:27;;;;;;;23.75;17.90;;;18.20;99.90;;;;;;5070129;28;20521;-77
2021/08/21 06:49:54;;;;;;;21.67;17.77;;;18.20;99.90;;;;;;5038321;28;20394;-77
2021/08/21 06:52:20;;;;;;;21.13;16.20;;;18.30;99.90;;;;;;5051317;28;20045;-77
2021/08/21 06:54:47;;;;;;;20.48;17.00;;;18.30;99.90;;;;;;5068806;28;20043;-77
2021/08/21 06:57:13;;;;;;;22.08;17.92;;;18.40;99.90;;;;;;5067553;28;20491;-75
2021/08/21 06:59:39;;;;;;;22.10;18.55;;;18.40;99.90;;;;;;5047670;28;20032;-75
2021/08/21 07:02:06;;;;;;;20.52;16.33;;;18.50;99.90;;;;;;5049759;28;20031;-74
2021/08/21 07:04:32;;;;;;;22.48;17.92;;;18.50;99.90;;;;;;5054244;28;20040;-75
2021/08/21 07:06:59;;;;;;;19.80;16.35;;;18.60;99.90;;;;;;5047438;28;20395;-75
2021/08/21 07:09:25;;;;;;;18.52;16.45;;;18.60;99.90;;;;;;5030790;28;20063;-75
2021/08/21 07:11:52;;;;;;;23.80;19.05;;;18.60;99.90;;;;;;5035517;28;20037;-75
2021/08/21 07:14:19;;;;;;;19.40;15.30;;;18.60;99.90;;;;;;5033125;28;20036;-75
2021/08/21 07:16:45;;;;;;;24.40;19.50;;;18.70;99.90;;;;;;5014398;28;20044;-75
2021/08/21 07:19:12;;;;;;;21.27;17.30;;;18.80;99.90;;;;;;5066097;28;20045;-75
2021/08/21 07:21:38;;;;;;;20.73;16.63;;;19.00;99.90;;;;;;5050083;28;20391;-75
2021/08/21 07:24:04;;;;;;;24.45;18.58;;;19.00;99.90;;;;;;5067250;28;20044;-75
2021/08/21 07:26:31;;;;;;;22.80;17.30;;;19.10;99.90;;;;;;5065342;28;20041;-75
2021/08/21 07:28:57;;;;;;;22.02;16.75;;;19.10;99.90;;;;;;5015952;28;20466;-76
2021/08/21 07:31:24;;;;;;;22.73;17.88;;;19.10;99.90;;;;;;5047440;28;20051;-77
2021/08/21 07:33:50;;;;;;;17.92;14.75;;;19.20;99.90;;;;;;5067711;28;20045;-75
2021/08/21 07:36:16;;;;;;;23.50;18.02;;;19.30;99.90;;;;;;5050322;28;20040;-76
2021/08/21 07:38:43;;;;;;;20.38;16.52;;;19.40;99.90;;;;;;5070929;28;20040;-75
2021/08/21 07:41:12;;;;;;;20.40;16.25;;;19.50;99.90;;;;;;5076301;28;20043;-75
2021/08/21 07:43:39;;;;;;;23.67;18.50;;;19.80;99.90;;;;;;5025853;28;20514;-76
2021/08/21 07:46:05;;;;;;;24.05;17.83;;;19.90;99.90;;;;;;5069281;28;20435;-76
2021/08/21 07:48:32;;;;;;;21.02;16.02;;;19.90;99.90;;;;;;5074104;28;20048;-75
2021/08/21 07:50:58;;;;;;;20.83;16.80;;;19.90;99.90;;;;;;5068392;28;20048;-75
2021/08/21 07:53:24;;;;;;;19.88;14.98;;;20.00;99.90;;;;;;5065207;28;20524;-75
2021/08/21 07:55:51;;;;;;;20.85;17.17;;;20.10;99.90;;;;;;5052798;28;20043;-75
2021/08/21 07:58:17;;;;;;;17.73;14.82;;;20.20;99.90;;;;;;5048051;28;20033;-76
2021/08/21 08:00:44;;;;;;;16.85;13.35;;;20.40;99.90;;;;;;5023336;28;20041;-76
2021/08/21 08:03:14;;;;;;;18.30;13.93;;;20.50;99.90;;;;;;5036218;28;20044;-77
2021/08/21 08:05:42;;;;;;;16.70;13.82;;;20.80;99.90;;;;;;5049199;28;20045;-77
2021/08/21 08:08:08;;;;;;;17.05;14.55;;;21.10;99.90;;;;;;5030565;28;20045;-77
2021/08/21 08:10:36;;;;;;;17.08;14.38;;;21.30;99.90;;;;;;5051291;28;20087;-78
2021/08/21 08:13:04;;;;;;;15.82;12.98;;;21.40;99.90;;;;;;5048549;28;20047;-78
2021/08/21 08:15:30;;;;;;;19.02;13.30;;;21.60;99.90;;;;;;5033536;28;20055;-78
2021/08/21 08:17:57;;;;;;;14.60;11.90;;;21.80;99.90;;;;;;5052879;28;20510;-78
2021/08/21 08:20:25;;;;;;;14.93;11.52;;;22.00;99.90;;;;;;5034963;28;20055;-78
2021/08/21 08:22:52;;;;;;;14.38;10.73;;;22.10;99.90;;;;;;5051003;28;20747;-78
2021/08/21 08:25:18;;;;;;;16.42;11.57;;;22.20;99.90;;;;;;5033096;28;20048;-79
2021/08/21 08:27:46;;;;;;;15.63;12.63;;;22.30;99.90;;;;;;5065910;28;20035;-79
2021/08/21 08:30:13;;;;;;;16.58;13.38;;;22.40;99.90;;;;;;5070620;28;20036;-77
2021/08/21 08:32:40;;;;;;;13.05;10.73;;;22.50;99.90;;;;;;5069876;28;20047;-78
2021/08/21 08:35:07;;;;;;;15.55;12.82;;;22.70;99.90;;;;;;5068894;28;20045;-77
2021/08/21 08:37:37;;;;;;;16.77;12.85;;;22.90;99.90;;;;;;5044982;28;20039;-77
2021/08/21 08:40:04;;;;;;;16.92;13.32;;;23.00;99.90;;;;;;5062766;28;20033;-77
2021/08/21 08:42:32;;;;;;;11.02;9.65;;;23.10;99.90;;;;;;5043051;28;20043;-76
2021/08/21 08:45:00;;;;;;;15.80;11.07;;;23.20;99.90;;;;;;5048156;28;20506;-77
2021/08/21 08:47:28;;;;;;;14.63;12.10;;;23.20;99.90;;;;;;5046534;28;20037;-76
2021/08/21 08:50:02;;;;;;;12.80;11.45;;;23.30;99.90;;;;;;5063839;28;20047;-76
2021/08/21 08:52:29;;;;;;;15.82;12.93;;;23.50;99.90;;;;;;5031253;28;20466;-75
2021/08/21 08:54:56;;;;;;;15.45;11.48;;;23.50;99.90;;;;;;5064719;28;20033;-76
2021/08/21 08:57:38;;;;;;;13.65;12.30;;;23.50;99.90;;;;;;5032377;28;20873;-76
2021/08/21 09:00:11;;;;;;;11.70;10.50;;;23.60;99.90;;;;;;5047165;28;20044;-77
2021/08/21 09:02:44;;;;;;;13.48;11.50;;;23.70;99.90;;;;;;5045580;28;20479;-75
2021/08/21 09:05:13;;;;;;;11.40;9.68;;;23.90;99.90;;;;;;5046820;28;20103;-75
2021/08/21 09:07:49;;;;;;;12.13;10.55;;;24.00;99.90;;;;;;5025933;28;20041;-76
2021/08/21 09:10:24;;;;;;;13.25;11.85;;;24.10;99.90;;;;;;5045569;28;20344;-76
2021/08/21 09:13:15;;;;;;;14.80;11.85;;;24.20;99.90;;;;;;5063798;28;20040;-76
2021/08/21 09:15:50;;;;;;;11.77;10.57;;;24.30;99.90;;;;;;5045733;28;20740;-76
2021/08/21 09:18:23;;;;;;;11.45;10.25;;;24.30;99.90;;;;;;5061381;28;20036;-75
2021/08/21 09:20:51;;;;;;;12.05;10.60;;;24.40;99.90;;;;;;5042273;28;20032;-76
2021/08/21 09:23:38;;;;;;;14.55;11.15;;;24.50;99.90;;;;;;5042406;28;20048;-76
2021/08/21 09:26:19;;;;;;;11.50;10.30;;;24.50;99.90;;;;;;5057097;28;20029;-76
2021/08/21 09:28:48;;;;;;;10.10;9.00;;;24.60;99.60;;;;;;5058946;28;20025;-76
2021/08/21 09:31:20;;;;;;;11.63;10.48;;;24.70;99.50;;;;;;5045353;28;20052;-76
2021/08/21 09:33:50;;;;;;;12.18;10.23;;;25.00;99.20;;;;;;5029547;28;20037;-76
2021/08/21 09:36:36;;;;;;;11.38;10.13;;;25.00;98.70;;;;;;5079364;28;20059;-76
2021/08/21 09:39:06;;;;;;;10.77;9.77;;;25.00;98.50;;;;;;5061870;28;20035;-76
2021/08/21 09:41:55;;;;;;;11.13;10.02;;;25.10;98.40;;;;;;5060497;28;20041;-76
2021/08/21 09:44:33;;;;;;;10.07;9.07;;;25.20;98.00;;;;;;5062955;28;20032;-76
2021/08/21 09:47:26;;;;;;;10.98;9.02;;;25.30;98.10;;;;;;5064264;28;20047;-76
2021/08/21 09:50:14;;;;;;;9.75;8.20;;;25.50;97.90;;;;;;5081945;28;20032;-75
2021/08/21 09:52:42;;;;;;;11.93;9.23;;;25.50;97.50;;;;;;5083982;28;20040;-76
2021/08/21 09:55:14;;;;;;;8.63;7.78;;;25.60;97.50;;;;;;5082562;28;20055;-78
2021/08/21 09:58:01;;;;;;;8.20;7.00;;;25.60;97.30;;;;;;5062067;28;20036;-75
2021/08/21 10:00:29;;;;;;;9.27;6.72;;;25.80;97.00;;;;;;5066315;28;20036;-76
2021/08/21 10:02:59;;;;;;;9.05;5.72;;;25.90;96.50;;;;;;5083440;28;20031;-76
2021/08/21 10:05:26;;;;;;;10.20;5.10;;;26.00;96.20;;;;;;5048956;28;20044;-76
2021/08/21 10:08:06;;;;;;;7.28;4.85;;;26.20;95.80;;;;;;5045954;28;21591;-76
2021/08/21 10:10:37;;;;;;;6.53;5.43;;;26.40;95.30;;;;;;5065125;28;20031;-76
2021/08/21 10:13:10;;;;;;;7.13;4.40;;;26.50;94.90;;;;;;5064908;28;20032;-76
2021/08/21 10:15:43;;;;;;;4.53;3.50;;;26.70;94.70;;;;;;5063057;28;20062;-76
2021/08/21 10:18:10;;;;;;;4.05;3.60;;;26.90;94.20;;;;;;5079574;28;20028;-76
2021/08/21 10:20:37;;;;;;;6.85;5.38;;;27.00;93.80;;;;;;5066013;28;20039;-76
2021/08/21 10:23:10;;;;;;;5.07;3.65;;;27.20;92.40;;;;;;5081332;28;20032;-76
2021/08/21 10:25:47;;;;;;;4.70;3.53;;;27.20;92.50;;;;;;5064333;28;20040;-77
2021/08/21 10:28:16;;;;;;;6.85;3.92;;;27.20;92.10;;;;;;5061191;28;20044;-77
2021/08/21 10:30:49;;;;;;;4.97;2.90;;;27.20;91.80;;;;;;5083561;28;20024;-77
2021/08/21 10:33:16;;;;;;;6.50;5.30;;;27.30;92.20;;;;;;5065510;28;20052;-77
2021/08/21 10:35:56;;;;;;;7.30;4.88;;;27.30;91.30;;;;;;5063832;28;20056;-77
2021/08/21 10:38:32;;;;;;;6.60;4.32;;;27.40;91.50;;;;;;5061672;28;20032;-78
2021/08/21 10:41:18;;;;;;;5.95;3.20;;;27.50;91.40;;;;;;5082275;28;20383;-77
2021/08/21 10:43:51;;;;;;;4.18;3.05;;;27.70;90.80;;;;;;5048095;28;20502;-77
2021/08/21 10:46:37;;;;;;;5.63;3.63;;;27.90;90.70;;;;;;5080386;28;20035;-75
2021/08/21 10:49:05;;;;;;;3.58;2.40;;;28.20;90.10;;;;;;5049944;28;20058;-77
2021/08/21 10:51:37;;;;;;;4.03;2.92;;;28.30;90.20;;;;;;5082968;28;20854;-76
2021/08/21 10:54:25;;;;;;;3.60;2.80;;;28.50;88.70;;;;;;5082831;28;20035;-76
2021/08/21 10:56:54;;;;;;;4.03;1.85;;;28.70;88.70;;;;;;5061795;28;20028;-76
2021/08/21 10:59:42;;;;;;;3.67;1.98;;;29.10;87.80;;;;;;5035286;28;20514;-76
2021/08/21 11:02:26;;;;;;;3.03;1.70;;;29.40;85.60;;;;;;5068697;28;20044;-76
2021/08/21 11:04:53;;;;;;;2.40;1.45;;;29.70;83.20;;;;;;5048134;28;20040;-76
2021/08/21 11:07:39;;;;;;;3.58;1.90;;;29.90;81.70;;;;;;5082334;28;20032;-76
2021/08/21 11:10:30;;;;;;;4.15;2.95;;;30.20;81.00;;;;;;5044829;28;20039;-76
2021/08/21 11:12:56;;;;;;;3.17;2.50;;;30.40;79.90;;;;;;5064286;28;20047;-77
2021/08/21 11:15:31;;;;;;;3.58;2.05;;;30.60;80.30;;;;;;5065541;28;20052;-79
2021/08/21 11:17:58;;;;;;;1.60;1.23;;;30.80;78.00;;;;;;5045361;28;20486;-79
2021/08/21 11:20:31;;;;;;;4.00;1.40;;;31.00;76.30;;;;;;5065885;28;20056;-79
2021/08/21 11:23:06;;;;;;;2.28;1.20;;;31.20;72.90;;;;;;5081392;28;20459;-79
2021/08/21 11:25:41;;;;;;;4.70;2.00;;;31.40;71.30;;;;;;5046614;28;20375;-79
2021/08/21 11:28:22;;;;;;;3.50;2.58;;;31.30;71.70;;;;;;5080524;28;20024;-79
2021/08/21 11:31:08;;;;;;;2.80;1.80;;;31.20;71.00;;;;;;5084397;28;20032;-79
2021/08/21 11:33:40;;;;;;;3.42;2.05;;;31.10;71.70;;;;;;5065534;28;20494;-79
2021/08/21 11:36:09;;;;;;;2.65;1.13;;;30.80;72.40;;;;;;5082433;28;20059;-79
2021/08/21 11:38:38;;;;;;;2.10;1.40;;;30.90;71.90;;;;;;5081121;28;20028;-79
2021/08/21 11:41:13;;;;;;;2.47;1.52;;;31.10;71.10;;;;;;5083343;28;20032;-79
2021/08/21 11:43:41;;;;;;;4.53;2.17;;;31.50;70.20;;;;;;5083330;28;20020;-79
2021/08/21 11:46:09;;;;;;;2.85;1.60;;;31.90;68.10;;;;;;5082848;28;20103;-79
2021/08/21 11:48:39;;;;;;;3.88;1.48;;;31.90;68.20;;;;;;5064793;28;20040;-83
2021/08/21 11:51:06;;;;;;;2.40;1.35;;;32.00;67.30;;;;;;5085100;28;20036;-85
2021/08/21 11:53:42;;;;;;;2.90;1.70;;;32.00;67.60;;;;;;5082907;28;20027;-87
2021/08/21 11:56:14;;;;;;;3.33;1.17;;;31.80;67.20;;;;;;5050588;28;20382;-89
2021/08/21 11:58:46;;;;;;;;;;;31.70;67.30;;;;;;5051548;28;20044;-86
2021/08/21 12:01:14;;;;;;;;;;;32.00;67.60;;;;;;5034447;28;19923;-85
2021/08/21 12:06:32;;;;;;;3.38;2.22;;;31.80;67.80;;;;;;5066960;28;20027;-82
2021/08/21 12:09:10;;;;;;;3.90;2.20;;;31.70;66.60;;;;;;5082498;28;20039;-82
2021/08/21 12:11:44;;;;;;;3.35;2.65;;;31.70;66.70;;;;;;5083518;28;20032;-84
2021/08/21 12:14:12;;;;;;;3.42;2.38;;;31.60;66.40;;;;;;5065629;28;20044;-83
2021/08/21 12:16:39;;;;;;;3.35;3.05;;;31.50;67.00;;;;;;5066896;28;20040;-83
2021/08/21 12:19:06;;;;;;;2.60;1.20;;;31.40;66.20;;;;;;5066425;28;20043;-83
2021/08/21 12:21:34;;;;;;;5.18;2.40;;;31.30;66.90;;;;;;5085135;28;20786;-83
2021/08/21 12:24:06;;;;;;;6.13;5.13;;;31.10;67.30;;;;;;5065602;28;20395;-77
2021/08/21 12:26:46;;;;;;;5.38;2.90;;;30.80;68.00;;;;;;5078293;28;20028;-77
2021/08/21 12:29:25;;;;;;;3.30;2.20;;;30.50;69.00;;;;;;5027339;28;20414;-77
2021/08/21 12:31:53;;;;;;;3.78;2.50;;;30.30;69.20;;;;;;5064825;28;20391;-82
2021/08/21 12:34:24;;;;;;;3.20;2.22;;;30.10;69.60;;;;;;5083712;28;20032;-77
2021/08/21 12:36:51;;;;;;;3.75;2.70;;;29.80;69.50;;;;;;5082894;28;20489;-78
2021/08/21 12:39:24;;;;;;;3.78;2.47;;;29.60;70.60;;;;;;5064940;28;20039;-78
2021/08/21 12:42:03;;;;;;;5.90;2.42;;;29.30;71.20;;;;;;5086301;28;20050;-84
2021/08/21 12:44:41;;;;;;;3.95;2.28;;;29.00;71.60;;;;;;5067966;28;20143;-77
2021/08/21 12:47:13;;;;;;;3.22;1.55;;;28.80;72.20;;;;;;5084522;28;20024;-77
2021/08/21 12:49:42;;;;;;;2.05;1.63;;;28.70;72.50;;;;;;5065659;28;20055;-77
2021/08/21 12:52:25;;;;;;;1.92;1.35;;;28.60;73.40;;;;;;5066064;28;20058;-77